sensor_id;sensor_type;location;lat;lon;timestamp;temperature;humidity
20946;DHT22;10632;51.276;7.116;2023-06-10T00:01:38;18.20;99.90
20946;DHT22;10632;51.276;7.116;2023-06-10T00:04:05;18.20;99.90
20946;DHT22;10632;51.276;7.116;2023-06-10T00:06:31;18.20;99.90
20946;DHT22;10632;51.276;7.116;2023-06-10T00:09:01;18.20;99.90
20946;DHT22;10632;51.276;7.116;2023-06-10T00:11:30;18.20;99.90
20946;DHT22;10632;51.276;7.116;2023-06-10T00:13:57;18.20;99.90
20946;DHT22;10632;51.276;7.116;2023-06-10T00:16:24;18.20;99.90
20946;DHT22;10632;51.276;7.116;2023-06-10T00:18:52;18.20;99.90
20946;DHT22;10632;51.276;7.116;2023-06-10T00:21:21;18.20;99.90
20946;DHT22;10632;51.276;7.116;2023-06-10T00:23:50;18.20;99.90
20946;DHT22;10632;51.276;7.116;2023-06-10T00:26:16;18.20;99.90
20946;DHT22;10632;51.276;7.116;2023-06-10T00:28:43;18.20;99.90
20946;DHT22;10632;51.276;7.116;2023-06-10T00:31:11;18.20;99.90
20946;DHT22;10632;51.276;7.116;2023-06-10T00:33:38;18.20;99.90
20946;DHT22;10632;51.276;7.116;2023-06-10T00:36:06;18.10;99.90
20946;DHT22;10632;51.276;7.116;2023-06-10T00:38:33;18.10;99.90
20946;DHT22;10632;51.276;7.116;2023-06-10T00:41:00;18.10;99.90
20946;DHT22;10632;51.276;7.116;2023-06-10T00:43:27;18.10;99.90
20946;DHT22;10632;51.276;7.116;2023-06-10T00:45:54;18.10;99.90
20946;DHT22;10632;51.276;7.116;2023-06-10T00:48:21;18.10;99.90
20946;DHT22;10632;51.276;7.116;2023-06-10T00:50:48;18.10;99.90
20946;DHT22;10632;51.276;7.116;2023-06-10T00:53:17;18.10;99.90
20946;DHT22;10632;51.276;7.116;2023-06-10T00:55:45;18.00;99.90
20946;DHT22;10632;51.276;7.116;2023-06-10T00:58:12;18.10;99.90
20946;DHT22;10632;51.276;7.116;2023-06-10T01:00:39;18.00;99.90
20946;DHT22;10632;51.276;7.116;2023-06-10T01:03:06;18.00;99.90
20946;DHT22;10632;51.276;7.116;2023-06-10T01:05:34;18.00;99.90
20946;DHT22;10632;51.276;7.116;2023-06-10T01:08:06;18.00;99.90
20946;DHT22;10632;51.276;7.116;2023-06-10T01:10:43;18.00;99.90
20946;DHT22;10632;51.276;7.116;2023-06-10T01:13:11;18.00;99.90
20946;DHT22;10632;51.276;7.116;2023-06-10T01:15:40;18.00;99.90
20946;DHT22;10632;51.276;7.116;2023-06-10T01:18:08;18.00;99.90
20946;DHT22;10632;51.276;7.116;2023-06-10T01:20:40;17.90;99.90
20946;DHT22;10632;51.276;7.116;2023-06-10T01:23:10;17.90;99.90
20946;DHT22;10632;51.276;7.116;2023-06-10T01:25:38;17.90;99.90
20946;DHT22;10632;51.276;7.116;2023-06-10T01:28:10;17.90;99.90
20946;DHT22;10632;51.276;7.116;2023-06-10T01:30:45;17.80;99.90
20946;DHT22;10632;51.276;7.116;2023-06-10T01:33:16;17.80;99.90
20946;DHT22;10632;51.276;7.116;2023-06-10T01:35:45;17.80;99.90
20946;DHT22;10632;51.276;7.116;2023-06-10T01:38:14;17.80;99.90
20946;DHT22;10632;51.276;7.116;2023-06-10T01:40:42;17.80;99.90
20946;DHT22;10632;51.276;7.116;2023-06-10T01:43:09;17.80;99.90
20946;DHT22;10632;51.276;7.116;2023-06-10T01:45:36;17.80;99.90
20946;DHT22;10632;51.276;7.116;2023-06-10T01:48:03;17.80;99.90
20946;DHT22;10632;51.276;7.116;2023-06-10T01:50:30;17.70;99.90
20946;DHT22;10632;51.276;7.116;2023-06-10T01:52:57;17.70;99.90
20946;DHT22;10632;51.276;7.116;2023-06-10T01:55:26;17.70;99.90
20946;DHT22;10632;51.276;7.116;2023-06-10T01:57:53;17.70;99.90
20946;DHT22;10632;51.276;7.116;2023-06-10T02:00:20;17.70;99.90
20946;DHT22;10632;51.276;7.116;2023-06-10T02:02:46;17.70;99.90
20946;DHT22;10632;51.276;7.116;2023-06-10T02:05:13;17.70;99.90
20946;DHT22;10632;51.276;7.116;2023-06-10T02:07:40;17.70;99.90
20946;DHT22;10632;51.276;7.116;2023-06-10T02:10:08;17.70;99.90
20946;DHT22;10632;51.276;7.116;2023-06-10T02:12:36;17.70;99.90
20946;DHT22;10632;51.276;7.116;2023-06-10T02:15:03;17.70;99.90
20946;DHT22;10632;51.276;7.116;2023-06-10T02:17:30;17.70;99.90
20946;DHT22;10632;51.276;7.116;2023-06-10T02:20:01;17.70;99.90
20946;DHT22;10632;51.276;7.116;2023-06-10T02:22:29;17.70;99.90
20946;DHT22;10632;51.276;7.116;2023-06-10T02:24:56;17.70;99.90
20946;DHT22;10632;51.276;7.116;2023-06-10T02:27:23;17.60;99.90
20946;DHT22;10632;51.276;7.116;2023-06-10T02:29:51;17.60;99.90
20946;DHT22;10632;51.276;7.116;2023-06-10T02:32:18;17.60;99.90
20946;DHT22;10632;51.276;7.116;2023-06-10T02:34:45;17.60;99.90
20946;DHT22;10632;51.276;7.116;2023-06-10T02:37:12;17.50;99.90
20946;DHT22;10632;51.276;7.116;2023-06-10T02:39:39;17.50;99.90
20946;DHT22;10632;51.276;7.116;2023-06-10T02:42:06;17.50;99.90
20946;DHT22;10632;51.276;7.116;2023-06-10T02:44:33;17.50;99.90
20946;DHT22;10632;51.276;7.116;2023-06-10T02:47:01;17.50;99.90
20946;DHT22;10632;51.276;7.116;2023-06-10T02:49:28;17.50;99.90
20946;DHT22;10632;51.276;7.116;2023-06-10T02:51:55;17.50;99.90
20946;DHT22;10632;51.276;7.116;2023-06-10T02:54:22;17.50;99.90
20946;DHT22;10632;51.276;7.116;2023-06-10T02:56:52;17.50;99.90
20946;DHT22;10632;51.276;7.116;2023-06-10T02:59:21;17.50;99.90
20946;DHT22;10632;51.276;7.116;2023-06-10T03:01:48;17.50;99.90
20946;DHT22;10632;51.276;7.116;2023-06-10T03:04:17;17.40;99.90
20946;DHT22;10632;51.276;7.116;2023-06-10T03:06:46;17.40;99.90
20946;DHT22;10632;51.276;7.116;2023-06-10T03:09:13;17.40;99.90
20946;DHT22;10632;51.276;7.116;2023-06-10T03:11:42;17.40;99.90
20946;DHT22;10632;51.276;7.116;2023-06-10T03:14:09;17.30;99.90
20946;DHT22;10632;51.276;7.116;2023-06-10T03:16:35;17.30;99.90
20946;DHT22;10632;51.276;7.116;2023-06-10T03:19:05;17.30;99.90
20946;DHT22;10632;51.276;7.116;2023-06-10T03:21:34;17.30;99.90
20946;DHT22;10632;51.276;7.116;2023-06-10T03:24:03;17.20;99.90
20946;DHT22;10632;51.276;7.116;2023-06-10T03:26:30;17.20;99.90
20946;DHT22;10632;51.276;7.116;2023-06-10T03:28:56;17.20;99.90
20946;DHT22;10632;51.276;7.116;2023-06-10T03:31:23;17.20;99.90
20946;DHT22;10632;51.276;7.116;2023-06-10T03:33:51;17.10;99.90
20946;DHT22;10632;51.276;7.116;2023-06-10T03:36:18;17.20;99.90
20946;DHT22;10632;51.276;7.116;2023-06-10T03:38:46;17.10;99.90
20946;DHT22;10632;51.276;7.116;2023-06-10T03:41:13;17.10;99.90
20946;DHT22;10632;51.276;7.116;2023-06-10T03:43:40;17.10;99.90
20946;DHT22;10632;51.276;7.116;2023-06-10T03:46:07;17.10;99.90
20946;DHT22;10632;51.276;7.116;2023-06-10T03:48:34;17.10;99.90
20946;DHT22;10632;51.276;7.116;2023-06-10T03:51:02;17.10;99.90
20946;DHT22;10632;51.276;7.116;2023-06-10T03:53:28;17.10;99.90
20946;DHT22;10632;51.276;7.116;2023-06-10T03:55:57;17.10;99.90
20946;DHT22;10632;51.276;7.116;2023-06-10T03:58:24;17.10;99.90
20946;DHT22;10632;51.276;7.116;2023-06-10T04:00:51;17.10;99.90
20946;DHT22;10632;51.276;7.116;2023-06-10T04:03:19;17.10;99.90
20946;DHT22;10632;51.276;7.116;2023-06-10T04:05:46;17.10;99.90
20946;DHT22;10632;51.276;7.116;2023-06-10T04:08:13;17.10;99.90
20946;DHT22;10632;51.276;7.116;2023-06-10T04:10:40;17.10;99.90
20946;DHT22;10632;51.276;7.116;2023-06-10T04:13:08;17.10;99.90
20946;DHT22;10632;51.276;7.116;2023-06-10T04:15:35;17.10;99.90
20946;DHT22;10632;51.276;7.116;2023-06-10T04:18:02;17.10;99.90
20946;DHT22;10632;51.276;7.116;2023-06-10T04:20:29;17.10;99.90
20946;DHT22;10632;51.276;7.116;2023-06-10T04:22:56;17.10;99.90
20946;DHT22;10632;51.276;7.116;2023-06-10T04:25:23;17.10;99.90
20946;DHT22;10632;51.276;7.116;2023-06-10T04:27:51;17.10;99.90
20946;DHT22;10632;51.276;7.116;2023-06-10T04:30:20;17.10;99.90
20946;DHT22;10632;51.276;7.116;2023-06-10T04:32:47;17.00;99.90
20946;DHT22;10632;51.276;7.116;2023-06-10T04:35:15;17.00;99.90
20946;DHT22;10632;51.276;7.116;2023-06-10T04:37:42;17.00;99.90
20946;DHT22;10632;51.276;7.116;2023-06-10T04:40:10;17.00;99.90
20946;DHT22;10632;51.276;7.116;2023-06-10T04:42:37;17.00;99.90
20946;DHT22;10632;51.276;7.116;2023-06-10T04:45:05;17.00;99.90
20946;DHT22;10632;51.276;7.116;2023-06-10T04:47:34;17.00;99.90
20946;DHT22;10632;51.276;7.116;2023-06-10T04:50:01;17.00;99.90
20946;DHT22;10632;51.276;7.116;2023-06-10T04:52:28;17.10;99.90
20946;DHT22;10632;51.276;7.116;2023-06-10T04:54:57;17.10;99.90
20946;DHT22;10632;51.276;7.116;2023-06-10T04:57:24;17.10;99.90
20946;DHT22;10632;51.276;7.116;2023-06-10T04:59:52;17.00;99.90
20946;DHT22;10632;51.276;7.116;2023-06-10T05:02:19;17.10;99.90
20946;DHT22;10632;51.276;7.116;2023-06-10T05:04:48;17.10;99.90
20946;DHT22;10632;51.276;7.116;2023-06-10T05:07:15;17.00;99.90
20946;DHT22;10632;51.276;7.116;2023-06-10T05:09:42;17.10;99.90
20946;DHT22;10632;51.276;7.116;2023-06-10T05:12:09;17.10;99.90
20946;DHT22;10632;51.276;7.116;2023-06-10T05:14:36;17.20;99.90
20946;DHT22;10632;51.276;7.116;2023-06-10T05:17:04;17.20;99.90
20946;DHT22;10632;51.276;7.116;2023-06-10T05:19:32;17.20;99.90
20946;DHT22;10632;51.276;7.116;2023-06-10T05:22:00;17.20;99.90
20946;DHT22;10632;51.276;7.116;2023-06-10T05:24:28;17.30;99.90
20946;DHT22;10632;51.276;7.116;2023-06-10T05:26:55;17.30;99.90
20946;DHT22;10632;51.276;7.116;2023-06-10T05:29:22;17.30;99.90
20946;DHT22;10632;51.276;7.116;2023-06-10T05:31:49;17.30;99.90
20946;DHT22;10632;51.276;7.116;2023-06-10T05:34:16;17.40;99.90
20946;DHT22;10632;51.276;7.116;2023-06-10T05:36:43;17.30;99.90
20946;DHT22;10632;51.276;7.116;2023-06-10T05:39:12;17.40;99.90
20946;DHT22;10632;51.276;7.116;2023-06-10T05:41:39;17.40;99.90
20946;DHT22;10632;51.276;7.116;2023-06-10T05:44:06;17.40;99.90
20946;DHT22;10632;51.276;7.116;2023-06-10T05:46:33;17.50;99.90
20946;DHT22;10632;51.276;7.116;2023-06-10T05:48:59;17.50;99.90
20946;DHT22;10632;51.276;7.116;2023-06-10T05:51:26;17.50;99.90
20946;DHT22;10632;51.276;7.116;2023-06-10T05:53:54;17.60;99.90
20946;DHT22;10632;51.276;7.116;2023-06-10T05:56:22;17.60;99.90
20946;DHT22;10632;51.276;7.116;2023-06-10T05:58:49;17.70;99.90
20946;DHT22;10632;51.276;7.116;2023-06-10T06:01:16;17.80;99.90
20946;DHT22;10632;51.276;7.116;2023-06-10T06:03:44;17.90;99.90
20946;DHT22;10632;51.276;7.116;2023-06-10T06:06:11;17.90;99.90
20946;DHT22;10632;51.276;7.116;2023-06-10T06:08:41;17.90;99.90
20946;DHT22;10632;51.276;7.116;2023-06-10T06:11:08;18.00;99.90
20946;DHT22;10632;51.276;7.116;2023-06-10T06:13:36;18.10;99.90
20946;DHT22;10632;51.276;7.116;2023-06-10T06:16:03;18.10;99.90
20946;DHT22;10632;51.276;7.116;2023-06-10T06:18:30;18.10;99.90
20946;DHT22;10632;51.276;7.116;2023-06-10T06:20:57;18.20;99.90
20946;DHT22;10632;51.276;7.116;2023-06-10T06:23:24;18.30;99.90
20946;DHT22;10632;51.276;7.116;2023-06-10T06:25:51;18.30;99.90
20946;DHT22;10632;51.276;7.116;2023-06-10T06:28:17;18.40;99.90
20946;DHT22;10632;51.276;7.116;2023-06-10T06:30:47;18.40;99.90
20946;DHT22;10632;51.276;7.116;2023-06-10T06:33:14;18.50;99.90
20946;DHT22;10632;51.276;7.116;2023-06-10T06:35:41;18.60;99.90
20946;DHT22;10632;51.276;7.116;2023-06-10T06:38:08;18.60;99.90
20946;DHT22;10632;51.276;7.116;2023-06-10T06:40:35;18.80;99.90
20946;DHT22;10632;51.276;7.116;2023-06-10T06:43:02;18.80;99.90
20946;DHT22;10632;51.276;7.116;2023-06-10T06:45:28;18.90;99.90
20946;DHT22;10632;51.276;7.116;2023-06-10T06:47:57;19.00;99.90
20946;DHT22;10632;51.276;7.116;2023-06-10T06:50:24;19.20;99.90
20946;DHT22;10632;51.276;7.116;2023-06-10T06:52:50;19.20;99.90
20946;DHT22;10632;51.276;7.116;2023-06-10T06:55:17;19.30;99.90
20946;DHT22;10632;51.276;7.116;2023-06-10T06:57:44;19.30;99.90
20946;DHT22;10632;51.276;7.116;2023-06-10T07:00:12;19.30;99.90
20946;DHT22;10632;51.276;7.116;2023-06-10T07:02:39;19.40;99.90
20946;DHT22;10632;51.276;7.116;2023-06-10T07:05:08;19.50;99.90
20946;DHT22;10632;51.276;7.116;2023-06-10T07:07:38;19.60;99.90
20946;DHT22;10632;51.276;7.116;2023-06-10T07:10:06;19.70;99.90
20946;DHT22;10632;51.276;7.116;2023-06-10T07:12:33;19.80;99.90
20946;DHT22;10632;51.276;7.116;2023-06-10T07:14:59;19.90;99.90
20946;DHT22;10632;51.276;7.116;2023-06-10T07:17:29;19.90;99.90
20946;DHT22;10632;51.276;7.116;2023-06-10T07:19:56;20.00;99.90
20946;DHT22;10632;51.276;7.116;2023-06-10T07:22:26;20.10;99.90
20946;DHT22;10632;51.276;7.116;2023-06-10T07:24:53;20.20;99.90
20946;DHT22;10632;51.276;7.116;2023-06-10T07:27:21;20.20;99.90
20946;DHT22;10632;51.276;7.116;2023-06-10T07:29:48;20.30;99.90
20946;DHT22;10632;51.276;7.116;2023-06-10T07:32:15;20.30;99.90
20946;DHT22;10632;51.276;7.116;2023-06-10T07:34:42;20.40;99.90
20946;DHT22;10632;51.276;7.116;2023-06-10T07:37:09;20.50;99.90
20946;DHT22;10632;51.276;7.116;2023-06-10T07:39:37;20.50;99.90
20946;DHT22;10632;51.276;7.116;2023-06-10T07:42:04;20.60;99.90
20946;DHT22;10632;51.276;7.116;2023-06-10T07:44:31;20.70;99.90
20946;DHT22;10632;51.276;7.116;2023-06-10T07:46:58;20.80;99.90
20946;DHT22;10632;51.276;7.116;2023-06-10T07:49:25;20.90;99.90
20946;DHT22;10632;51.276;7.116;2023-06-10T07:51:54;21.00;99.90
20946;DHT22;10632;51.276;7.116;2023-06-10T07:54:21;21.10;99.90
20946;DHT22;10632;51.276;7.116;2023-06-10T07:56:50;21.20;99.90
20946;DHT22;10632;51.276;7.116;2023-06-10T07:59:18;21.30;99.90
20946;DHT22;10632;51.276;7.116;2023-06-10T08:01:48;21.40;99.90
20946;DHT22;10632;51.276;7.116;2023-06-10T08:04:15;21.50;99.90
20946;DHT22;10632;51.276;7.116;2023-06-10T08:06:42;21.70;99.90
20946;DHT22;10632;51.276;7.116;2023-06-10T08:09:09;21.70;99.90
20946;DHT22;10632;51.276;7.116;2023-06-10T08:11:36;21.90;99.90
20946;DHT22;10632;51.276;7.116;2023-06-10T08:14:04;21.90;99.90
20946;DHT22;10632;51.276;7.116;2023-06-10T08:16:31;22.00;99.90
20946;DHT22;10632;51.276;7.116;2023-06-10T08:18:58;22.10;99.90
20946;DHT22;10632;51.276;7.116;2023-06-10T08:21:25;22.20;99.90
20946;DHT22;10632;51.276;7.116;2023-06-10T08:23:54;22.30;99.90
20946;DHT22;10632;51.276;7.116;2023-06-10T08:26:21;22.40;99.90
20946;DHT22;10632;51.276;7.116;2023-06-10T08:28:47;22.50;99.90
20946;DHT22;10632;51.276;7.116;2023-06-10T08:31:16;22.60;99.90
20946;DHT22;10632;51.276;7.116;2023-06-10T08:33:43;22.70;99.90
20946;DHT22;10632;51.276;7.116;2023-06-10T08:36:10;22.80;99.90
20946;DHT22;10632;51.276;7.116;2023-06-10T08:38:39;22.90;99.90
20946;DHT22;10632;51.276;7.116;2023-06-10T08:41:06;23.00;99.90
20946;DHT22;10632;51.276;7.116;2023-06-10T08:43:37;23.00;99.90
20946;DHT22;10632;51.276;7.116;2023-06-10T08:46:07;23.10;99.90
20946;DHT22;10632;51.276;7.116;2023-06-10T08:48:41;23.10;99.90
20946;DHT22;10632;51.276;7.116;2023-06-10T08:51:10;23.20;99.90
20946;DHT22;10632;51.276;7.116;2023-06-10T08:53:41;23.30;99.90
20946;DHT22;10632;51.276;7.116;2023-06-10T08:56:10;23.30;99.90
20946;DHT22;10632;51.276;7.116;2023-06-10T08:58:37;23.40;99.90
20946;DHT22;10632;51.276;7.116;2023-06-10T09:01:07;23.50;99.90
20946;DHT22;10632;51.276;7.116;2023-06-10T09:03:39;23.50;99.90
20946;DHT22;10632;51.276;7.116;2023-06-10T09:06:06;23.50;99.90
20946;DHT22;10632;51.276;7.116;2023-06-10T09:08:34;23.60;99.90
20946;DHT22;10632;51.276;7.116;2023-06-10T09:11:01;23.70;99.90
20946;DHT22;10632;51.276;7.116;2023-06-10T09:13:29;23.70;99.90
20946;DHT22;10632;51.276;7.116;2023-06-10T09:15:59;23.80;99.90
20946;DHT22;10632;51.276;7.116;2023-06-10T09:18:29;23.90;99.90
20946;DHT22;10632;51.276;7.116;2023-06-10T09:20:58;24.00;99.90
20946;DHT22;10632;51.276;7.116;2023-06-10T09:23:25;24.00;99.90
20946;DHT22;10632;51.276;7.116;2023-06-10T09:25:56;24.10;99.90
20946;DHT22;10632;51.276;7.116;2023-06-10T09:28:25;24.20;99.90
20946;DHT22;10632;51.276;7.116;2023-06-10T09:31:02;24.20;99.90
20946;DHT22;10632;51.276;7.116;2023-06-10T09:33:30;24.30;99.90
20946;DHT22;10632;51.276;7.116;2023-06-10T09:36:01;24.40;99.90
20946;DHT22;10632;51.276;7.116;2023-06-10T09:38:31;24.50;99.90
20946;DHT22;10632;51.276;7.116;2023-06-10T09:40:59;24.60;99.90
20946;DHT22;10632;51.276;7.116;2023-06-10T09:43:39;24.70;99.90
20946;DHT22;10632;51.276;7.116;2023-06-10T09:46:07;24.80;99.90
20946;DHT22;10632;51.276;7.116;2023-06-10T09:48:41;24.90;99.90
20946;DHT22;10632;51.276;7.116;2023-06-10T09:51:11;25.10;99.90
20946;DHT22;10632;51.276;7.116;2023-06-10T09:53:38;25.20;99.90
20946;DHT22;10632;51.276;7.116;2023-06-10T09:56:05;25.40;99.90
20946;DHT22;10632;51.276;7.116;2023-06-10T09:58:38;25.50;99.90
20946;DHT22;10632;51.276;7.116;2023-06-10T10:01:11;25.60;99.90
20946;DHT22;10632;51.276;7.116;2023-06-10T10:03:49;25.80;99.90
20946;DHT22;10632;51.276;7.116;2023-06-10T10:06:18;25.80;99.90
20946;DHT22;10632;51.276;7.116;2023-06-10T10:08:48;26.00;99.90
20946;DHT22;10632;51.276;7.116;2023-06-10T10:11:17;26.10;99.90
20946;DHT22;10632;51.276;7.116;2023-06-10T10:13:45;26.20;99.90
20946;DHT22;10632;51.276;7.116;2023-06-10T10:16:16;26.20;99.90
20946;DHT22;10632;51.276;7.116;2023-06-10T10:18:49;26.40;99.90
20946;DHT22;10632;51.276;7.116;2023-06-10T10:21:22;26.40;99.90
20946;DHT22;10632;51.276;7.116;2023-06-10T10:23:53;26.50;99.90
20946;DHT22;10632;51.276;7.116;2023-06-10T10:26:24;26.60;99.90
20946;DHT22;10632;51.276;7.116;2023-06-10T10:29:01;26.70;99.90
20946;DHT22;10632;51.276;7.116;2023-06-10T10:31:33;26.80;99.90
20946;DHT22;10632;51.276;7.116;2023-06-10T10:34:06;26.90;99.90
20946;DHT22;10632;51.276;7.116;2023-06-10T10:36:36;27.00;99.90
20946;DHT22;10632;51.276;7.116;2023-06-10T10:39:04;27.10;99.90
20946;DHT22;10632;51.276;7.116;2023-06-10T10:41:32;27.10;99.90
20946;DHT22;10632;51.276;7.116;2023-06-10T10:44:01;27.30;99.90
20946;DHT22;10632;51.276;7.116;2023-06-10T10:46:31;27.30;99.90
20946;DHT22;10632;51.276;7.116;2023-06-10T10:49:08;27.40;99.90
20946;DHT22;10632;51.276;7.116;2023-06-10T10:51:37;27.50;99.90
20946;DHT22;10632;51.276;7.116;2023-06-10T10:54:10;27.60;99.30
20946;DHT22;10632;51.276;7.116;2023-06-10T10:56:38;27.60;99.10
20946;DHT22;10632;51.276;7.116;2023-06-10T10:59:06;27.70;98.60
20946;DHT22;10632;51.276;7.116;2023-06-10T11:01:40;27.70;98.70
20946;DHT22;10632;51.276;7.116;2023-06-10T11:04:08;27.70;98.30
20946;DHT22;10632;51.276;7.116;2023-06-10T11:06:37;27.60;98.60
20946;DHT22;10632;51.276;7.116;2023-06-10T11:09:25;27.60;98.50
20946;DHT22;10632;51.276;7.116;2023-06-10T11:11:53;27.70;98.10
20946;DHT22;10632;51.276;7.116;2023-06-10T11:14:27;27.80;97.50
20946;DHT22;10632;51.276;7.116;2023-06-10T11:16:57;27.80;98.30
20946;DHT22;10632;51.276;7.116;2023-06-10T11:19:33;27.90;97.30
20946;DHT22;10632;51.276;7.116;2023-06-10T11:22:03;28.00;97.50
20946;DHT22;10632;51.276;7.116;2023-06-10T11:24:30;28.00;98.30
20946;DHT22;10632;51.276;7.116;2023-06-10T11:27:16;28.10;97.70
20946;DHT22;10632;51.276;7.116;2023-06-10T11:32:42;28.40;97.00
20946;DHT22;10632;51.276;7.116;2023-06-10T11:35:09;28.50;96.40
20946;DHT22;10632;51.276;7.116;2023-06-10T11:37:38;28.60;96.20
20946;DHT22;10632;51.276;7.116;2023-06-10T11:40:07;28.70;95.40
20946;DHT22;10632;51.276;7.116;2023-06-10T11:42:38;28.70;95.10
20946;DHT22;10632;51.276;7.116;2023-06-10T11:45:07;28.60;95.20
20946;DHT22;10632;51.276;7.116;2023-06-10T11:47:34;28.60;94.50
20946;DHT22;10632;51.276;7.116;2023-06-10T11:50:01;28.40;95.20
20946;DHT22;10632;51.276;7.116;2023-06-10T11:52:28;28.30;96.10
20946;DHT22;10632;51.276;7.116;2023-06-10T11:54:58;28.10;95.60
20946;DHT22;10632;51.276;7.116;2023-06-10T11:57:25;27.90;96.20
20946;DHT22;10632;51.276;7.116;2023-06-10T11:59:53;27.70;96.30
20946;DHT22;10632;51.276;7.116;2023-06-10T12:02:20;27.60;96.60
20946;DHT22;10632;51.276;7.116;2023-06-10T12:04:47;27.60;97.00
20946;DHT22;10632;51.276;7.116;2023-06-10T12:07:18;27.60;97.60
20946;DHT22;10632;51.276;7.116;2023-06-10T12:09:45;27.80;97.30
20946;DHT22;10632;51.276;7.116;2023-06-10T12:12:13;27.90;96.70
20946;DHT22;10632;51.276;7.116;2023-06-10T12:14:51;28.10;96.10
20946;DHT22;10632;51.276;7.116;2023-06-10T12:17:21;28.10;96.10
20946;DHT22;10632;51.276;7.116;2023-06-10T12:19:48;28.10;96.10
20946;DHT22;10632;51.276;7.116;2023-06-10T12:22:15;28.10;95.80
20946;DHT22;10632;51.276;7.116;2023-06-10T12:24:45;28.00;96.50
20946;DHT22;10632;51.276;7.116;2023-06-10T12:27:18;27.80;96.20
20946;DHT22;10632;51.276;7.116;2023-06-10T12:29:51;27.50;96.20
20946;DHT22;10632;51.276;7.116;2023-06-10T12:32:21;27.30;96.70
20946;DHT22;10632;51.276;7.116;2023-06-10T12:34:50;27.30;97.40
20946;DHT22;10632;51.276;7.116;2023-06-10T12:37:28;27.30;97.30
20946;DHT22;10632;51.276;7.116;2023-06-10T12:39:55;27.40;97.00
20946;DHT22;10632;51.276;7.116;2023-06-10T12:42:25;27.50;97.50
20946;DHT22;10632;51.276;7.116;2023-06-10T12:44:56;27.50;96.10
20946;DHT22;10632;51.276;7.116;2023-06-10T12:47:29;27.70;95.60
20946;DHT22;10632;51.276;7.116;2023-06-10T12:49:58;27.80;95.50
20946;DHT22;10632;51.276;7.116;2023-06-10T12:52:30;28.00;94.50
20946;DHT22;10632;51.276;7.116;2023-06-10T12:54:58;28.20;95.00
20946;DHT22;10632;51.276;7.116;2023-06-10T12:57:27;28.30;94.70
20946;DHT22;10632;51.276;7.116;2023-06-10T12:59:56;28.40;94.60
20946;DHT22;10632;51.276;7.116;2023-06-10T13:02:29;28.50;94.80
20946;DHT22;10632;51.276;7.116;2023-06-10T13:04:57;28.50;94.50
20946;DHT22;10632;51.276;7.116;2023-06-10T13:07:24;28.50;94.40
20946;DHT22;10632;51.276;7.116;2023-06-10T13:09:52;28.60;95.60
20946;DHT22;10632;51.276;7.116;2023-06-10T13:12:19;28.50;95.30
20946;DHT22;10632;51.276;7.116;2023-06-10T13:14:47;28.50;95.30
20946;DHT22;10632;51.276;7.116;2023-06-10T13:17:14;28.50;95.50
20946;DHT22;10632;51.276;7.116;2023-06-10T13:19:42;28.50;94.70
20946;DHT22;10632;51.276;7.116;2023-06-10T13:22:09;28.50;94.70
20946;DHT22;10632;51.276;7.116;2023-06-10T13:24:38;28.50;94.10
20946;DHT22;10632;51.276;7.116;2023-06-10T13:27:06;28.50;94.70
20946;DHT22;10632;51.276;7.116;2023-06-10T13:29:33;28.50;94.10
20946;DHT22;10632;51.276;7.116;2023-06-10T13:32:01;28.60;94.20
20946;DHT22;10632;51.276;7.116;2023-06-10T13:34:28;28.60;94.30
20946;DHT22;10632;51.276;7.116;2023-06-10T13:36:55;28.60;94.10
20946;DHT22;10632;51.276;7.116;2023-06-10T13:39:22;28.50;93.80
20946;DHT22;10632;51.276;7.116;2023-06-10T13:41:49;28.50;94.00
20946;DHT22;10632;51.276;7.116;2023-06-10T13:44:17;28.40;94.00
20946;DHT22;10632;51.276;7.116;2023-06-10T13:46:44;28.20;94.10
20946;DHT22;10632;51.276;7.116;2023-06-10T13:49:12;28.00;93.90
20946;DHT22;10632;51.276;7.116;2023-06-10T13:51:39;27.80;94.10
20946;DHT22;10632;51.276;7.116;2023-06-10T13:54:06;27.70;94.10
20946;DHT22;10632;51.276;7.116;2023-06-10T13:56:33;27.60;94.20
20946;DHT22;10632;51.276;7.116;2023-06-10T13:59:03;27.40;94.60
20946;DHT22;10632;51.276;7.116;2023-06-10T14:01:30;27.40;95.20
20946;DHT22;10632;51.276;7.116;2023-06-10T14:03:57;27.30;95.50
20946;DHT22;10632;51.276;7.116;2023-06-10T14:06:26;27.30;95.70
20946;DHT22;10632;51.276;7.116;2023-06-10T14:08:53;27.20;96.00
20946;DHT22;10632;51.276;7.116;2023-06-10T14:11:23;27.20;96.30
20946;DHT22;10632;51.276;7.116;2023-06-10T14:13:50;27.20;95.60
20946;DHT22;10632;51.276;7.116;2023-06-10T14:16:17;27.20;95.00
20946;DHT22;10632;51.276;7.116;2023-06-10T14:18:44;27.10;95.20
20946;DHT22;10632;51.276;7.116;2023-06-10T14:21:11;27.10;94.80
20946;DHT22;10632;51.276;7.116;2023-06-10T14:23:39;27.20;95.40
20946;DHT22;10632;51.276;7.116;2023-06-10T14:26:10;27.20;95.80
20946;DHT22;10632;51.276;7.116;2023-06-10T14:28:38;27.20;96.30
20946;DHT22;10632;51.276;7.116;2023-06-10T14:31:07;27.20;96.50
20946;DHT22;10632;51.276;7.116;2023-06-10T14:33:37;27.30;95.90
20946;DHT22;10632;51.276;7.116;2023-06-10T14:36:05;27.30;95.90
20946;DHT22;10632;51.276;7.116;2023-06-10T14:38:32;27.40;96.10
20946;DHT22;10632;51.276;7.116;2023-06-10T14:41:01;27.50;95.50
20946;DHT22;10632;51.276;7.116;2023-06-10T14:43:29;27.60;95.20
20946;DHT22;10632;51.276;7.116;2023-06-10T14:45:55;27.70;95.00
20946;DHT22;10632;51.276;7.116;2023-06-10T14:48:23;27.70;95.30
20946;DHT22;10632;51.276;7.116;2023-06-10T14:50:50;27.70;94.80
20946;DHT22;10632;51.276;7.116;2023-06-10T14:53:17;27.70;94.90
20946;DHT22;10632;51.276;7.116;2023-06-10T14:55:44;27.60;94.30
20946;DHT22;10632;51.276;7.116;2023-06-10T14:58:12;27.40;94.20
20946;DHT22;10632;51.276;7.116;2023-06-10T15:00:42;27.30;93.90
20946;DHT22;10632;51.276;7.116;2023-06-10T15:03:09;27.20;94.00
20946;DHT22;10632;51.276;7.116;2023-06-10T15:05:36;27.10;94.20
20946;DHT22;10632;51.276;7.116;2023-06-10T15:08:03;27.00;94.40
20946;DHT22;10632;51.276;7.116;2023-06-10T15:10:30;27.00;94.70
20946;DHT22;10632;51.276;7.116;2023-06-10T15:12:57;26.90;94.40
20946;DHT22;10632;51.276;7.116;2023-06-10T15:15:26;27.00;94.20
20946;DHT22;10632;51.276;7.116;2023-06-10T15:17:54;27.00;94.50
20946;DHT22;10632;51.276;7.116;2023-06-10T15:20:21;27.00;94.90
20946;DHT22;10632;51.276;7.116;2023-06-10T15:22:48;27.00;94.00
20946;DHT22;10632;51.276;7.116;2023-06-10T15:25:15;27.10;94.30
20946;DHT22;10632;51.276;7.116;2023-06-10T15:27:42;27.30;94.30
20946;DHT22;10632;51.276;7.116;2023-06-10T15:30:12;27.40;94.40
20946;DHT22;10632;51.276;7.116;2023-06-10T15:32:40;27.50;94.40
20946;DHT22;10632;51.276;7.116;2023-06-10T15:35:08;27.60;95.50
20946;DHT22;10632;51.276;7.116;2023-06-10T15:37:35;27.60;97.10
20946;DHT22;10632;51.276;7.116;2023-06-10T15:40:02;27.50;97.50